sensor_id;sensor_type;location;lat;lon;timestamp;P1;durP1;ratioP1;P2;durP2;ratioP2
9473;SDS011;8865;47.636;7.692;2023-02-24T00:01:37;10.10;;;5.43;;
9473;SDS011;8865;47.636;7.692;2023-02-24T00:04:05;15.10;;;5.40;;
9473;SDS011;8865;47.636;7.692;2023-02-24T00:06:34;8.70;;;5.53;;
9473;SDS011;8865;47.636;7.692;2023-02-24T00:09:11;8.20;;;5.07;;
9473;SDS011;8865;47.636;7.692;2023-02-24T00:11:47;12.70;;;5.60;;
9473;SDS011;8865;47.636;7.692;2023-02-24T00:14:20;12.40;;;6.00;;
9473;SDS011;8865;47.636;7.692;2023-02-24T00:16:47;11.73;;;5.37;;
9473;SDS011;8865;47.636;7.692;2023-02-24T00:19:14;8.57;;;5.20;;
9473;SDS011;8865;47.636;7.692;2023-02-24T00:21:45;9.10;;;5.60;;
9473;SDS011;8865;47.636;7.692;2023-02-24T00:24:12;12.53;;;6.00;;
9473;SDS011;8865;47.636;7.692;2023-02-24T00:26:38;9.27;;;5.60;;
9473;SDS011;8865;47.636;7.692;2023-02-24T00:29:06;8.37;;;5.40;;
9473;SDS011;8865;47.636;7.692;2023-02-24T00:31:34;12.70;;;5.70;;
9473;SDS011;8865;47.636;7.692;2023-02-24T00:34:04;10.87;;;5.20;;
9473;SDS011;8865;47.636;7.692;2023-02-24T00:36:31;13.60;;;5.30;;
9473;SDS011;8865;47.636;7.692;2023-02-24T00:38:59;15.30;;;5.80;;
9473;SDS011;8865;47.636;7.692;2023-02-24T00:41:28;15.57;;;6.13;;
9473;SDS011;8865;47.636;7.692;2023-02-24T00:43:56;10.77;;;5.83;;
9473;SDS011;8865;47.636;7.692;2023-02-24T00:46:24;13.40;;;6.23;;
9473;SDS011;8865;47.636;7.692;2023-02-24T00:48:53;10.63;;;6.13;;
9473;SDS011;8865;47.636;7.692;2023-02-24T00:51:20;15.27;;;6.83;;
9473;SDS011;8865;47.636;7.692;2023-02-24T00:53:55;12.37;;;6.40;;
9473;SDS011;8865;47.636;7.692;2023-02-24T00:56:23;11.37;;;6.13;;
9473;SDS011;8865;47.636;7.692;2023-02-24T00:58:54;12.30;;;6.30;;
9473;SDS011;8865;47.636;7.692;2023-02-24T01:01:23;11.50;;;6.67;;
9473;SDS011;8865;47.636;7.692;2023-02-24T01:03:51;13.80;;;5.70;;
9473;SDS011;8865;47.636;7.692;2023-02-24T01:06:19;11.70;;;5.93;;
9473;SDS011;8865;47.636;7.692;2023-02-24T01:08:48;14.30;;;6.00;;
9473;SDS011;8865;47.636;7.692;2023-02-24T01:11:16;14.40;;;5.60;;
9473;SDS011;8865;47.636;7.692;2023-02-24T01:14:03;13.07;;;5.60;;
9473;SDS011;8865;47.636;7.692;2023-02-24T01:16:31;9.43;;;5.20;;
9473;SDS011;8865;47.636;7.692;2023-02-24T01:18:59;10.73;;;5.53;;
9473;SDS011;8865;47.636;7.692;2023-02-24T01:21:25;11.63;;;5.77;;
9473;SDS011;8865;47.636;7.692;2023-02-24T01:23:52;15.10;;;5.40;;
9473;SDS011;8865;47.636;7.692;2023-02-24T01:26:18;10.37;;;5.37;;
9473;SDS011;8865;47.636;7.692;2023-02-24T01:28:45;11.03;;;5.80;;
9473;SDS011;8865;47.636;7.692;2023-02-24T01:31:13;11.03;;;5.70;;
9473;SDS011;8865;47.636;7.692;2023-02-24T01:33:45;14.07;;;6.60;;
9473;SDS011;8865;47.636;7.692;2023-02-24T01:36:13;12.50;;;6.17;;
9473;SDS011;8865;47.636;7.692;2023-02-24T01:38:44;15.57;;;6.73;;
9473;SDS011;8865;47.636;7.692;2023-02-24T01:41:11;13.70;;;6.27;;
9473;SDS011;8865;47.636;7.692;2023-02-24T01:43:53;14.50;;;5.63;;
9473;SDS011;8865;47.636;7.692;2023-02-24T01:46:30;11.33;;;5.20;;
9473;SDS011;8865;47.636;7.692;2023-02-24T01:48:59;11.73;;;5.47;;
9473;SDS011;8865;47.636;7.692;2023-02-24T01:51:40;12.27;;;5.47;;
9473;SDS011;8865;47.636;7.692;2023-02-24T01:54:10;15.03;;;5.30;;
9473;SDS011;8865;47.636;7.692;2023-02-24T01:56:40;12.77;;;5.20;;
9473;SDS011;8865;47.636;7.692;2023-02-24T01:59:07;10.23;;;4.77;;
9473;SDS011;8865;47.636;7.692;2023-02-24T02:01:35;10.23;;;4.87;;
9473;SDS011;8865;47.636;7.692;2023-02-24T02:04:10;10.13;;;5.57;;
9473;SDS011;8865;47.636;7.692;2023-02-24T02:06:51;9.97;;;5.30;;
9473;SDS011;8865;47.636;7.692;2023-02-24T02:09:18;11.17;;;5.50;;
9473;SDS011;8865;47.636;7.692;2023-02-24T02:11:45;13.07;;;5.60;;
9473;SDS011;8865;47.636;7.692;2023-02-24T02:14:14;13.53;;;5.87;;
9473;SDS011;8865;47.636;7.692;2023-02-24T02:19:26;14.03;;;5.60;;
9473;SDS011;8865;47.636;7.692;2023-02-24T02:22:31;9.80;;;5.40;;
9473;SDS011;8865;47.636;7.692;2023-02-24T02:34:06;12.33;;;6.00;;
9473;SDS011;8865;47.636;7.692;2023-02-24T02:39:32;9.43;;;5.23;;
9473;SDS011;8865;47.636;7.692;2023-02-24T02:47:26;9.77;;;5.33;;
9473;SDS011;8865;47.636;7.692;2023-02-24T02:52:50;14.50;;;5.00;;
9473;SDS011;8865;47.636;7.692;2023-02-24T02:55:28;18.30;;;5.07;;
9473;SDS011;8865;47.636;7.692;2023-02-24T02:58:04;7.97;;;4.60;;
9473;SDS011;8865;47.636;7.692;2023-02-24T03:00:35;12.20;;;5.30;;
9473;SDS011;8865;47.636;7.692;2023-02-24T03:03:14;11.83;;;4.67;;
9473;SDS011;8865;47.636;7.692;2023-02-24T03:05:45;14.50;;;4.93;;
9473;SDS011;8865;47.636;7.692;2023-02-24T03:08:18;12.60;;;5.70;;
9473;SDS011;8865;47.636;7.692;2023-02-24T03:10:48;10.07;;;4.83;;
9473;SDS011;8865;47.636;7.692;2023-02-24T03:13:17;11.80;;;4.50;;
9473;SDS011;8865;47.636;7.692;2023-02-24T03:15:49;12.53;;;5.03;;
9473;SDS011;8865;47.636;7.692;2023-02-24T03:18:23;9.93;;;4.80;;
9473;SDS011;8865;47.636;7.692;2023-02-24T03:20:56;10.37;;;5.13;;
9473;SDS011;8865;47.636;7.692;2023-02-24T03:23:36;11.77;;;5.17;;
9473;SDS011;8865;47.636;7.692;2023-02-24T03:26:20;17.50;;;5.57;;
9473;SDS011;8865;47.636;7.692;2023-02-24T03:28:56;14.13;;;5.80;;
9473;SDS011;8865;47.636;7.692;2023-02-24T03:31:37;19.37;;;6.27;;
9473;SDS011;8865;47.636;7.692;2023-02-24T03:34:21;14.87;;;6.67;;
9473;SDS011;8865;47.636;7.692;2023-02-24T03:36:54;18.93;;;6.40;;
9473;SDS011;8865;47.636;7.692;2023-02-24T03:39:22;20.03;;;6.87;;
9473;SDS011;8865;47.636;7.692;2023-02-24T03:41:59;19.43;;;7.17;;
9473;SDS011;8865;47.636;7.692;2023-02-24T03:44:32;18.93;;;6.73;;
9473;SDS011;8865;47.636;7.692;2023-02-24T03:46:59;16.20;;;6.37;;
9473;SDS011;8865;47.636;7.692;2023-02-24T03:49:26;19.37;;;6.67;;
9473;SDS011;8865;47.636;7.692;2023-02-24T03:54:28;15.87;;;6.37;;
9473;SDS011;8865;47.636;7.692;2023-02-24T04:00:39;14.10;;;6.27;;
9473;SDS011;8865;47.636;7.692;2023-02-24T04:03:13;17.53;;;6.67;;
9473;SDS011;8865;47.636;7.692;2023-02-24T04:06:06;22.70;;;7.80;;
9473;SDS011;8865;47.636;7.692;2023-02-24T04:08:40;25.17;;;8.43;;
9473;SDS011;8865;47.636;7.692;2023-02-24T04:11:24;19.97;;;8.37;;
9473;SDS011;8865;47.636;7.692;2023-02-24T04:13:57;23.30;;;8.20;;
9473;SDS011;8865;47.636;7.692;2023-02-24T04:16:38;15.53;;;7.87;;
9473;SDS011;8865;47.636;7.692;2023-02-24T04:19:16;15.30;;;7.20;;
9473;SDS011;8865;47.636;7.692;2023-02-24T04:21:46;14.03;;;6.93;;
9473;SDS011;8865;47.636;7.692;2023-02-24T04:24:13;13.63;;;6.00;;
9473;SDS011;8865;47.636;7.692;2023-02-24T04:26:43;11.97;;;6.10;;
9473;SDS011;8865;47.636;7.692;2023-02-24T04:29:12;12.17;;;6.03;;
9473;SDS011;8865;47.636;7.692;2023-02-24T04:31:45;15.77;;;7.07;;
9473;SDS011;8865;47.636;7.692;2023-02-24T04:34:13;16.23;;;6.63;;
9473;SDS011;8865;47.636;7.692;2023-02-24T04:36:45;15.03;;;7.03;;
9473;SDS011;8865;47.636;7.692;2023-02-24T04:39:17;17.80;;;7.13;;
9473;SDS011;8865;47.636;7.692;2023-02-24T04:41:45;13.63;;;7.20;;
9473;SDS011;8865;47.636;7.692;2023-02-24T04:44:17;16.17;;;6.97;;
9473;SDS011;8865;47.636;7.692;2023-02-24T04:46:45;19.53;;;7.80;;
9473;SDS011;8865;47.636;7.692;2023-02-24T04:49:14;14.87;;;6.93;;
9473;SDS011;8865;47.636;7.692;2023-02-24T04:51:42;17.57;;;7.30;;
9473;SDS011;8865;47.636;7.692;2023-02-24T04:54:10;21.57;;;8.47;;
9473;SDS011;8865;47.636;7.692;2023-02-24T04:56:45;19.47;;;8.00;;
9473;SDS011;8865;47.636;7.692;2023-02-24T04:59:13;18.37;;;7.90;;
9473;SDS011;8865;47.636;7.692;2023-02-24T05:01:40;19.50;;;8.20;;
9473;SDS011;8865;47.636;7.692;2023-02-24T05:04:09;25.57;;;8.47;;
9473;SDS011;8865;47.636;7.692;2023-02-24T05:06:37;24.87;;;9.17;;
9473;SDS011;8865;47.636;7.692;2023-02-24T05:09:06;25.40;;;8.93;;
9473;SDS011;8865;47.636;7.692;2023-02-24T05:11:43;20.17;;;8.63;;
9473;SDS011;8865;47.636;7.692;2023-02-24T05:14:11;26.03;;;8.73;;
9473;SDS011;8865;47.636;7.692;2023-02-24T05:16:42;23.07;;;9.20;;
9473;SDS011;8865;47.636;7.692;2023-02-24T05:19:10;25.10;;;10.33;;
9473;SDS011;8865;47.636;7.692;2023-02-24T05:21:59;33.77;;;10.90;;
9473;SDS011;8865;47.636;7.692;2023-02-24T05:24:27;28.57;;;10.17;;
9473;SDS011;8865;47.636;7.692;2023-02-24T05:26:54;21.57;;;9.37;;
9473;SDS011;8865;47.636;7.692;2023-02-24T05:29:27;21.90;;;9.60;;
9473;SDS011;8865;47.636;7.692;2023-02-24T05:31:56;23.80;;;9.47;;
9473;SDS011;8865;47.636;7.692;2023-02-24T05:34:25;18.23;;;8.17;;
9473;SDS011;8865;47.636;7.692;2023-02-24T05:36:55;19.80;;;8.00;;
9473;SDS011;8865;47.636;7.692;2023-02-24T05:39:22;15.50;;;7.60;;
9473;SDS011;8865;47.636;7.692;2023-02-24T05:41:51;20.83;;;8.03;;
9473;SDS011;8865;47.636;7.692;2023-02-24T05:44:19;22.30;;;9.00;;
9473;SDS011;8865;47.636;7.692;2023-02-24T05:46:47;27.87;;;10.37;;
9473;SDS011;8865;47.636;7.692;2023-02-24T05:49:16;30.90;;;10.70;;
9473;SDS011;8865;47.636;7.692;2023-02-24T05:51:48;23.00;;;10.60;;
9473;SDS011;8865;47.636;7.692;2023-02-24T05:54:22;26.30;;;11.83;;
9473;SDS011;8865;47.636;7.692;2023-02-24T05:56:53;29.20;;;11.60;;
9473;SDS011;8865;47.636;7.692;2023-02-24T05:59:21;28.87;;;10.63;;
9473;SDS011;8865;47.636;7.692;2023-02-24T06:01:47;28.37;;;11.43;;
9473;SDS011;8865;47.636;7.692;2023-02-24T06:04:18;30.63;;;12.00;;
9473;SDS011;8865;47.636;7.692;2023-02-24T06:07:15;26.23;;;11.80;;
9473;SDS011;8865;47.636;7.692;2023-02-24T06:09:46;28.77;;;11.27;;
9473;SDS011;8865;47.636;7.692;2023-02-24T06:12:15;32.00;;;12.67;;
9473;SDS011;8865;47.636;7.692;2023-02-24T06:14:42;27.27;;;11.30;;
9473;SDS011;8865;47.636;7.692;2023-02-24T06:17:09;30.17;;;12.50;;
9473;SDS011;8865;47.636;7.692;2023-02-24T06:19:35;28.63;;;12.10;;
9473;SDS011;8865;47.636;7.692;2023-02-24T06:22:01;22.67;;;11.00;;
9473;SDS011;8865;47.636;7.692;2023-02-24T06:24:29;31.13;;;11.13;;
9473;SDS011;8865;47.636;7.692;2023-02-24T06:26:58;21.87;;;9.83;;
9473;SDS011;8865;47.636;7.692;2023-02-24T06:29:34;25.80;;;10.63;;
9473;SDS011;8865;47.636;7.692;2023-02-24T06:32:02;21.93;;;10.17;;
9473;SDS011;8865;47.636;7.692;2023-02-24T06:34:33;27.90;;;11.33;;
9473;SDS011;8865;47.636;7.692;2023-02-24T06:37:00;23.13;;;11.37;;
9473;SDS011;8865;47.636;7.692;2023-02-24T06:39:31;27.07;;;13.40;;
9473;SDS011;8865;47.636;7.692;2023-02-24T06:41:57;22.33;;;11.17;;
9473;SDS011;8865;47.636;7.692;2023-02-24T06:44:31;22.07;;;11.43;;
9473;SDS011;8865;47.636;7.692;2023-02-24T06:46:59;21.53;;;12.07;;
9473;SDS011;8865;47.636;7.692;2023-02-24T06:49:25;26.87;;;14.77;;
9473;SDS011;8865;47.636;7.692;2023-02-24T06:51:52;22.77;;;13.17;;
9473;SDS011;8865;47.636;7.692;2023-02-24T06:54:22;24.47;;;11.17;;
9473;SDS011;8865;47.636;7.692;2023-02-24T06:56:53;28.57;;;11.60;;
9473;SDS011;8865;47.636;7.692;2023-02-24T06:59:19;25.40;;;12.83;;
9473;SDS011;8865;47.636;7.692;2023-02-24T07:02:01;25.60;;;10.60;;
9473;SDS011;8865;47.636;7.692;2023-02-24T07:04:28;23.23;;;11.53;;
9473;SDS011;8865;47.636;7.692;2023-02-24T07:06:55;20.13;;;10.57;;
9473;SDS011;8865;47.636;7.692;2023-02-24T07:09:23;17.30;;;10.57;;
9473;SDS011;8865;47.636;7.692;2023-02-24T07:11:51;21.27;;;10.03;;
9473;SDS011;8865;47.636;7.692;2023-02-24T07:14:21;26.77;;;11.23;;
9473;SDS011;8865;47.636;7.692;2023-02-24T07:16:49;20.30;;;10.33;;
9473;SDS011;8865;47.636;7.692;2023-02-24T07:19:23;24.03;;;11.03;;
9473;SDS011;8865;47.636;7.692;2023-02-24T07:21:54;22.63;;;10.80;;
9473;SDS011;8865;47.636;7.692;2023-02-24T07:24:25;21.30;;;11.90;;
9473;SDS011;8865;47.636;7.692;2023-02-24T07:29:34;24.77;;;12.50;;
9473;SDS011;8865;47.636;7.692;2023-02-24T07:32:03;21.83;;;13.47;;
9473;SDS011;8865;47.636;7.692;2023-02-24T07:34:31;22.50;;;12.73;;
9473;SDS011;8865;47.636;7.692;2023-02-24T07:36:58;19.20;;;12.70;;
9473;SDS011;8865;47.636;7.692;2023-02-24T07:39:27;19.17;;;12.70;;
9473;SDS011;8865;47.636;7.692;2023-02-24T07:41:54;20.20;;;12.50;;
9473;SDS011;8865;47.636;7.692;2023-02-24T07:44:21;23.07;;;12.47;;
9473;SDS011;8865;47.636;7.692;2023-02-24T07:46:50;18.33;;;11.53;;
9473;SDS011;8865;47.636;7.692;2023-02-24T07:49:19;19.67;;;10.73;;
9473;SDS011;8865;47.636;7.692;2023-02-24T07:51:49;18.83;;;11.30;;
9473;SDS011;8865;47.636;7.692;2023-02-24T07:54:20;20.60;;;13.40;;
9473;SDS011;8865;47.636;7.692;2023-02-24T07:56:48;19.63;;;14.40;;
9473;SDS011;8865;47.636;7.692;2023-02-24T07:59:21;21.83;;;13.03;;
9473;SDS011;8865;47.636;7.692;2023-02-24T08:01:50;24.60;;;15.83;;
9473;SDS011;8865;47.636;7.692;2023-02-24T08:04:21;22.07;;;16.27;;
9473;SDS011;8865;47.636;7.692;2023-02-24T08:06:51;21.80;;;14.30;;
9473;SDS011;8865;47.636;7.692;2023-02-24T08:09:22;21.00;;;13.70;;
9473;SDS011;8865;47.636;7.692;2023-02-24T08:12:12;25.57;;;15.03;;
9473;SDS011;8865;47.636;7.692;2023-02-24T08:14:46;20.27;;;14.40;;
9473;SDS011;8865;47.636;7.692;2023-02-24T08:17:16;21.73;;;14.23;;
9473;SDS011;8865;47.636;7.692;2023-02-24T08:19:48;19.40;;;13.87;;
9473;SDS011;8865;47.636;7.692;2023-02-24T08:22:16;20.63;;;13.30;;
9473;SDS011;8865;47.636;7.692;2023-02-24T08:27:26;16.23;;;12.33;;
9473;SDS011;8865;47.636;7.692;2023-02-24T08:29:56;13.20;;;11.50;;
9473;SDS011;8865;47.636;7.692;2023-02-24T08:34:51;13.02;;;11.63;;
9473;SDS011;8865;47.636;7.692;2023-02-24T08:37:28;14.73;;;11.83;;
9473;SDS011;8865;47.636;7.692;2023-02-24T08:39:59;14.57;;;12.13;;
9473;SDS011;8865;47.636;7.692;2023-02-24T08:42:25;13.23;;;10.03;;
9473;SDS011;8865;47.636;7.692;2023-02-24T08:45:02;15.03;;;11.23;;
9473;SDS011;8865;47.636;7.692;2023-02-24T08:47:28;15.23;;;12.17;;
9473;SDS011;8865;47.636;7.692;2023-02-24T08:50:00;15.83;;;13.07;;
9473;SDS011;8865;47.636;7.692;2023-02-24T08:52:31;17.47;;;13.00;;
9473;SDS011;8865;47.636;7.692;2023-02-24T08:54:59;15.23;;;10.80;;
9473;SDS011;8865;47.636;7.692;2023-02-24T08:57:26;14.80;;;11.20;;
9473;SDS011;8865;47.636;7.692;2023-02-24T08:59:52;15.83;;;10.23;;
9473;SDS011;8865;47.636;7.692;2023-02-24T09:02:22;12.17;;;9.27;;
9473;SDS011;8865;47.636;7.692;2023-02-24T09:04:53;13.07;;;8.67;;
9473;SDS011;8865;47.636;7.692;2023-02-24T09:07:30;12.80;;;8.33;;
9473;SDS011;8865;47.636;7.692;2023-02-24T09:10:00;13.00;;;8.43;;
9473;SDS011;8865;47.636;7.692;2023-02-24T09:12:28;11.20;;;8.30;;
9473;SDS011;8865;47.636;7.692;2023-02-24T09:17:30;11.73;;;7.83;;
9473;SDS011;8865;47.636;7.692;2023-02-24T09:20:09;11.43;;;7.53;;
9473;SDS011;8865;47.636;7.692;2023-02-24T09:22:53;9.40;;;6.97;;
9473;SDS011;8865;47.636;7.692;2023-02-24T09:25:29;8.40;;;7.50;;
9473;SDS011;8865;47.636;7.692;2023-02-24T09:28:12;10.80;;;8.80;;
9473;SDS011;8865;47.636;7.692;2023-02-24T09:33:22;11.60;;;8.23;;
9473;SDS011;8865;47.636;7.692;2023-02-24T09:36:07;8.83;;;7.93;;
9473;SDS011;8865;47.636;7.692;2023-02-24T09:44:12;12.13;;;8.17;;
9473;SDS011;8865;47.636;7.692;2023-02-24T09:46:44;9.87;;;6.47;;
9473;SDS011;8865;47.636;7.692;2023-02-24T09:49:19;12.57;;;7.23;;
9473;SDS011;8865;47.636;7.692;2023-02-24T09:51:49;10.57;;;6.83;;
9473;SDS011;8865;47.636;7.692;2023-02-24T09:54:28;14.13;;;6.23;;
9473;SDS011;8865;47.636;7.692;2023-02-24T09:57:01;9.90;;;5.97;;
9473;SDS011;8865;47.636;7.692;2023-02-24T09:59:50;11.37;;;5.53;;
9473;SDS011;8865;47.636;7.692;2023-02-24T10:02:56;9.73;;;6.10;;
9473;SDS011;8865;47.636;7.692;2023-02-24T10:06:08;7.53;;;5.93;;
9473;SDS011;8865;47.636;7.692;2023-02-24T10:08:40;9.00;;;5.97;;
9473;SDS011;8865;47.636;7.692;2023-02-24T10:11:10;11.90;;;5.70;;
9473;SDS011;8865;47.636;7.692;2023-02-24T10:13:47;26.73;;;6.17;;
9473;SDS011;8865;47.636;7.692;2023-02-24T10:16:19;12.25;;;7.28;;
9473;SDS011;8865;47.636;7.692;2023-02-24T10:18:52;7.93;;;5.22;;
9473;SDS011;8865;47.636;7.692;2023-02-24T10:21:37;8.15;;;5.53;;
9473;SDS011;8865;47.636;7.692;2023-02-24T10:24:37;9.05;;;5.35;;
9473;SDS011;8865;47.636;7.692;2023-02-24T10:29:55;9.75;;;5.03;;
9473;SDS011;8865;47.636;7.692;2023-02-24T10:32:53;10.27;;;5.43;;
9473;SDS011;8865;47.636;7.692;2023-02-24T10:35:26;7.38;;;5.50;;
9473;SDS011;8865;47.636;7.692;2023-02-24T10:37:58;7.97;;;5.05;;
9473;SDS011;8865;47.636;7.692;2023-02-24T10:40:48;8.77;;;5.25;;
9473;SDS011;8865;47.636;7.692;2023-02-24T10:43:22;10.20;;;5.97;;
9473;SDS011;8865;47.636;7.692;2023-02-24T10:45:55;9.15;;;5.50;;
9473;SDS011;8865;47.636;7.692;2023-02-24T10:48:32;10.30;;;5.90;;
9473;SDS011;8865;47.636;7.692;2023-02-24T10:51:07;8.93;;;5.38;;
9473;SDS011;8865;47.636;7.692;2023-02-24T10:53:47;9.98;;;5.53;;
9473;SDS011;8865;47.636;7.692;2023-02-24T10:56:41;7.78;;;5.03;;
9473;SDS011;8865;47.636;7.692;2023-02-24T10:59:11;10.55;;;5.40;;
9473;SDS011;8865;47.636;7.692;2023-02-24T11:02:15;11.55;;;5.70;;
9473;SDS011;8865;47.636;7.692;2023-02-24T11:05:03;10.95;;;5.47;;
9473;SDS011;8865;47.636;7.692;2023-02-24T11:11:20;8.95;;;5.38;;
9473;SDS011;8865;47.636;7.692;2023-02-24T11:14:16;10.73;;;5.60;;
9473;SDS011;8865;47.636;7.692;2023-02-24T11:17:01;12.82;;;5.82;;
9473;SDS011;8865;47.636;7.692;2023-02-24T11:19:42;11.13;;;6.30;;
9473;SDS011;8865;47.636;7.692;2023-02-24T11:22:15;10.40;;;5.70;;
9473;SDS011;8865;47.636;7.692;2023-02-24T11:24:45;8.00;;;5.60;;
9473;SDS011;8865;47.636;7.692;2023-02-24T11:27:14;10.52;;;5.97;;
9473;SDS011;8865;47.636;7.692;2023-02-24T11:38:13;10.48;;;6.50;;
9473;SDS011;8865;47.636;7.692;2023-02-24T11:40:43;11.27;;;6.53;;
9473;SDS011;8865;47.636;7.692;2023-02-24T11:43:25;11.75;;;5.50;;
9473;SDS011;8865;47.636;7.692;2023-02-24T11:45:58;12.10;;;6.35;;
9473;SDS011;8865;47.636;7.692;2023-02-24T11:48:31;12.02;;;6.32;;
9473;SDS011;8865;47.636;7.692;2023-02-24T11:51:04;8.27;;;5.82;;
9473;SDS011;8865;47.636;7.692;2023-02-24T11:53:41;8.88;;;6.25;;
9473;SDS011;8865;47.636;7.692;2023-02-24T11:56:15;11.38;;;6.20;;
9473;SDS011;8865;47.636;7.692;2023-02-24T12:04:41;9.80;;;6.50;;
9473;SDS011;8865;47.636;7.692;2023-02-24T12:07:20;11.18;;;6.65;;
9473;SDS011;8865;47.636;7.692;2023-02-24T12:09:58;14.65;;;8.02;;
9473;SDS011;8865;47.636;7.692;2023-02-24T12:15:31;11.48;;;6.47;;
9473;SDS011;8865;47.636;7.692;2023-02-24T12:20:47;11.48;;;6.30;;
9473;SDS011;8865;47.636;7.692;2023-02-24T12:31:43;13.60;;;6.32;;
9473;SDS011;8865;47.636;7.692;2023-02-24T12:34:21;15.50;;;6.68;;
9473;SDS011;8865;47.636;7.692;2023-02-24T12:45:59;11.52;;;7.43;;
9473;SDS011;8865;47.636;7.692;2023-02-24T12:48:55;13.80;;;7.45;;
9473;SDS011;8865;47.636;7.692;2023-02-24T12:59:40;14.13;;;7.13;;
9473;SDS011;8865;47.636;7.692;2023-02-24T13:02:11;13.40;;;7.10;;
9473;SDS011;8865;47.636;7.692;2023-02-24T13:15:28;15.07;;;7.65;;
9473;SDS011;8865;47.636;7.692;2023-02-24T13:17:57;17.25;;;8.23;;
9473;SDS011;8865;47.636;7.692;2023-02-24T13:20:31;16.92;;;8.05;;
9473;SDS011;8865;47.636;7.692;2023-02-24T13:23:02;16.20;;;7.93;;
9473;SDS011;8865;47.636;7.692;2023-02-24T13:25:48;13.32;;;8.20;;
9473;SDS011;8865;47.636;7.692;2023-02-24T13:28:26;13.13;;;8.60;;
9473;SDS011;8865;47.636;7.692;2023-02-24T13:31:05;10.80;;;7.75;;
9473;SDS011;8865;47.636;7.692;2023-02-24T13:33:34;14.45;;;7.80;;
9473;SDS011;8865;47.636;7.692;2023-02-24T13:38:41;13.18;;;8.13;;
9473;SDS011;8865;47.636;7.692;2023-02-24T13:44:24;13.57;;;7.70;;
9473;SDS011;8865;47.636;7.692;2023-02-24T13:49:49;12.38;;;7.70;;
9473;SDS011;8865;47.636;7.692;2023-02-24T13:57:59;12.60;;;7.65;;
9473;SDS011;8865;47.636;7.692;2023-02-24T14:00:35;13.30;;;7.40;;
9473;SDS011;8865;47.636;7.692;2023-02-24T14:03:11;13.63;;;8.60;;
9473;SDS011;8865;47.636;7.692;2023-02-24T14:05:45;17.52;;;8.32;;
9473;SDS011;8865;47.636;7.692;2023-02-24T14:08:20;13.75;;;8.20;;
9473;SDS011;8865;47.636;7.692;2023-02-24T14:10:59;11.85;;;8.15;;
9473;SDS011;8865;47.636;7.692;2023-02-24T14:13:28;17.83;;;7.22;;
9473;SDS011;8865;47.636;7.692;2023-02-24T14:15:59;11.68;;;6.80;;
9473;SDS011;8865;47.636;7.692;2023-02-24T14:18:30;15.23;;;6.40;;
9473;SDS011;8865;47.636;7.692;2023-02-24T14:20:56;14.90;;;7.00;;
9473;SDS011;8865;47.636;7.692;2023-02-24T14:23:23;10.38;;;7.32;;
9473;SDS011;8865;47.636;7.692;2023-02-24T14:28:27;12.70;;;7.30;;
9473;SDS011;8865;47.636;7.692;2023-02-24T14:30:57;15.38;;;7.65;;
9473;SDS011;8865;47.636;7.692;2023-02-24T14:33:28;14.93;;;7.43;;
9473;SDS011;8865;47.636;7.692;2023-02-24T14:35:56;12.65;;;7.38;;
9473;SDS011;8865;47.636;7.692;2023-02-24T14:38:31;14.35;;;7.50;;
9473;SDS011;8865;47.636;7.692;2023-02-24T14:41:23;18.88;;;10.60;;
9473;SDS011;8865;47.636;7.692;2023-02-24T14:43:52;12.70;;;7.93;;
9473;SDS011;8865;47.636;7.692;2023-02-24T14:46:18;13.75;;;8.23;;
9473;SDS011;8865;47.636;7.692;2023-02-24T14:48:44;13.23;;;7.75;;
9473;SDS011;8865;47.636;7.692;2023-02-24T14:51:12;14.27;;;7.07;;
9473;SDS011;8865;47.636;7.692;2023-02-24T14:53:54;11.27;;;7.40;;
9473;SDS011;8865;47.636;7.692;2023-02-24T14:56:25;14.87;;;7.70;;
9473;SDS011;8865;47.636;7.692;2023-02-24T14:58:59;15.10;;;7.53;;
9473;SDS011;8865;47.636;7.692;2023-02-24T15:01:37;13.97;;;7.73;;
9473;SDS011;8865;47.636;7.692;2023-02-24T15:07:04;15.33;;;8.37;;
9473;SDS011;8865;47.636;7.692;2023-02-24T15:09:42;19.70;;;9.27;;
9473;SDS011;8865;47.636;7.692;2023-02-24T15:12:10;14.93;;;8.97;;
9473;SDS011;8865;47.636;7.692;2023-02-24T15:14:52;14.57;;;8.77;;
9473;SDS011;8865;47.636;7.692;2023-02-24T15:17:25;18.07;;;9.37;;
9473;SDS011;8865;47.636;7.692;2023-02-24T15:19:52;15.20;;;8.83;;
9473;SDS011;8865;47.636;7.692;2023-02-24T15:22:29;17.33;;;9.33;;
9473;SDS011;8865;47.636;7.692;2023-02-24T15:27:52;17.53;;;8.57;;
9473;SDS011;8865;47.636;7.692;2023-02-24T15:30:32;17.50;;;9.53;;
9473;SDS011;8865;47.636;7.692;2023-02-24T15:33:04;19.93;;;9.37;;
9473;SDS011;8865;47.636;7.692;2023-02-24T15:35:36;18.07;;;9.07;;
9473;SDS011;8865;47.636;7.692;2023-02-24T15:38:13;17.77;;;9.67;;
9473;SDS011;8865;47.636;7.692;2023-02-24T15:40:55;19.57;;;9.43;;
9473;SDS011;8865;47.636;7.692;2023-02-24T15:43:31;18.50;;;10.53;;
9473;SDS011;8865;47.636;7.692;2023-02-24T15:48:44;18.03;;;9.93;;
9473;SDS011;8865;47.636;7.692;2023-02-24T15:51:54;20.93;;;10.67;;
9473;SDS011;8865;47.636;7.692;2023-02-24T15:54:14;18.80;;;10.80;;
9473;SDS011;8865;47.636;7.692;2023-02-24T15:56:44;18.57;;;9.73;;
9473;SDS011;8865;47.636;7.692;2023-02-24T15:59:13;19.43;;;10.93;;
9473;SDS011;8865;47.636;7.692;2023-02-24T16:01:40;18.17;;;9.70;;
9473;SDS011;8865;47.636;7.692;2023-02-24T16:04:06;13.97;;;9.40;;
9473;SDS011;8865;47.636;7.692;2023-02-24T16:06:34;18.83;;;10.63;;
9473;SDS011;8865;47.636;7.692;2023-02-24T16:09:09;18.30;;;10.93;;
9473;SDS011;8865;47.636;7.692;2023-02-24T16:11:38;18.40;;;10.90;;
9473;SDS011;8865;47.636;7.692;2023-02-24T16:14:08;19.33;;;10.57;;
9473;SDS011;8865;47.636;7.692;2023-02-24T16:16:39;20.93;;;11.07;;
9473;SDS011;8865;47.636;7.692;2023-02-24T16:19:06;21.67;;;15.90;;
9473;SDS011;8865;47.636;7.692;2023-02-24T16:21:33;22.00;;;13.30;;
9473;SDS011;8865;47.636;7.692;2023-02-24T16:23:59;17.97;;;10.73;;
9473;SDS011;8865;47.636;7.692;2023-02-24T16:26:25;22.10;;;11.37;;
9473;SDS011;8865;47.636;7.692;2023-02-24T16:28:55;20.40;;;10.47;;
9473;SDS011;8865;47.636;7.692;2023-02-24T16:31:23;15.23;;;9.63;;
9473;SDS011;8865;47.636;7.692;2023-02-24T16:33:50;20.00;;;11.00;;
9473;SDS011;8865;47.636;7.692;2023-02-24T16:36:16;20.57;;;11.07;;
9473;SDS011;8865;47.636;7.692;2023-02-24T16:38:43;18.00;;;11.13;;
9473;SDS011;8865;47.636;7.692;2023-02-24T16:41:12;20.50;;;11.60;;
9473;SDS011;8865;47.636;7.692;2023-02-24T16:43:39;19.70;;;11.20;;
9473;SDS011;8865;47.636;7.692;2023-02-24T16:46:06;20.60;;;11.70;;
9473;SDS011;8865;47.636;7.692;2023-02-24T16:48:38;15.30;;;11.27;;
9473;SDS011;8865;47.636;7.692;2023-02-24T16:51:06;20.90;;;12.07;;
9473;SDS011;8865;47.636;7.692;2023-02-24T16:53:33;19.77;;;11.87;;
9473;SDS011;8865;47.636;7.692;2023-02-24T16:55:59;22.07;;;12.27;;
9473;SDS011;8865;47.636;7.692;2023-02-24T16:58:25;20.57;;;12.60;;
9473;SDS011;8865;47.636;7.692;2023-02-24T17:00:53;19.63;;;12.10;;
9473;SDS011;8865;47.636;7.692;2023-02-24T17:03:23;22.73;;;12.50;;
9473;SDS011;8865;47.636;7.692;2023-02-24T17:05:50;20.67;;;12.13;;
9473;SDS011;8865;47.636;7.692;2023-02-24T17:08:17;17.17;;;12.13;;
9473;SDS011;8865;47.636;7.692;2023-02-24T17:10:43;21.77;;;11.63;;
9473;SDS011;8865;47.636;7.692;2023-02-24T17:13:11;21.40;;;11.60;;
9473;SDS011;8865;47.636;7.692;2023-02-24T17:15:39;19.03;;;11.90;;
9473;SDS011;8865;47.636;7.692;2023-02-24T17:18:06;22.37;;;13.17;;
9473;SDS011;8865;47.636;7.692;2023-02-24T17:20:34;22.30;;;12.40;;
9473;SDS011;8865;47.636;7.692;2023-02-24T17:23:00;21.63;;;12.37;;
9473;SDS011;8865;47.636;7.692;2023-02-24T17:25:27;20.13;;;12.17;;
9473;SDS011;8865;47.636;7.692;2023-02-24T17:27:54;20.00;;;13.07;;
9473;SDS011;8865;47.636;7.692;2023-02-24T17:30:25;26.10;;;13.67;;
9473;SDS011;8865;47.636;7.692;2023-02-24T17:32:56;21.43;;;12.97;;
9473;SDS011;8865;47.636;7.692;2023-02-24T17:35:22;18.67;;;12.83;;
9473;SDS011;8865;47.636;7.692;2023-02-24T17:37:49;17.83;;;11.63;;
9473;SDS011;8865;47.636;7.692;2023-02-24T17:40:15;19.93;;;12.10;;
9473;SDS011;8865;47.636;7.692;2023-02-24T17:42:42;22.67;;;13.57;;
9473;SDS011;8865;47.636;7.692;2023-02-24T17:45:09;20.97;;;13.90;;